Terminal Aerodrome Forecast
Issued by NWS

Home | Current Version | Previous Version | Text Only | Print | Product List | Glossary Off
Versions: 1 2 3 4 5 6 7 8 9 10 11 12 13 14 15 16 17 18 19 20 21

000
FTUS43 KLOT 121732
TAFGYY
TAF
KGYY 121732Z 1218/1318 30013G21KT P6SM SCT035 SCT200
     FM122300 30009KT P6SM BKN100
     FM130700 20006KT P6SM SCT045 OVC060
     FM131100 16010KT P6SM SCT030 OVC040
      TEMPO 1312/1316 2SM -SN SCT020 OVC030
     FM131600 18012G18KT P6SM SCT030 OVC060=

USA.gov is the U.S. government's official web portal to all federal, state and local government web resources and services.